sensor_id;sensor_type;location;lat;lon;timestamp;pressure;altitude;pressure_sealevel;temperature;humidity
52855;BME280;38719;51.418;7.286;2023-04-23T00:00:55;99048.69;;;13.12;72.18
52855;BME280;38719;51.418;7.286;2023-04-23T00:03:29;99048.78;;;13.11;72.62
52855;BME280;38719;51.418;7.286;2023-04-23T00:05:59;99054.63;;;13.29;71.93
52855;BME280;38719;51.418;7.286;2023-04-23T00:08:31;99051.75;;;13.32;71.09
52855;BME280;38719;51.418;7.286;2023-04-23T00:10:59;99046.22;;;13.22;72.83
52855;BME280;38719;51.418;7.286;2023-04-23T00:13:27;99042.88;;;13.31;72.64
52855;BME280;38719;51.418;7.286;2023-04-23T00:15:55;99032.75;;;13.11;72.35
52855;BME280;38719;51.418;7.286;2023-04-23T00:18:22;99041.84;;;13.08;73.91
52855;BME280;38719;51.418;7.286;2023-04-23T00:20:51;99036.28;;;12.98;73.77
52855;BME280;38719;51.418;7.286;2023-04-23T00:23:19;99037.22;;;12.84;74.25
52855;BME280;38719;51.418;7.286;2023-04-23T00:25:46;99040.53;;;13.14;73.26
52855;BME280;38719;51.418;7.286;2023-04-23T00:28:15;99042.97;;;13.30;73.08
52855;BME280;38719;51.418;7.286;2023-04-23T00:30:42;99041.28;;;12.90;73.90
52855;BME280;38719;51.418;7.286;2023-04-23T00:33:10;99033.91;;;13.06;72.49
52855;BME280;38719;51.418;7.286;2023-04-23T00:35:37;99029.09;;;13.12;72.54
52855;BME280;38719;51.418;7.286;2023-04-23T00:38:06;99026.34;;;13.13;71.92
52855;BME280;38719;51.418;7.286;2023-04-23T00:40:34;99025.88;;;13.06;73.91
52855;BME280;38719;51.418;7.286;2023-04-23T00:43:03;99030.72;;;13.14;72.50
52855;BME280;38719;51.418;7.286;2023-04-23T00:45:30;99023.94;;;13.21;71.63
52855;BME280;38719;51.418;7.286;2023-04-23T00:47:58;99027.81;;;13.30;71.20
52855;BME280;38719;51.418;7.286;2023-04-23T00:50:25;99027.69;;;13.32;71.54
52855;BME280;38719;51.418;7.286;2023-04-23T00:52:53;99038.06;;;13.23;71.08
52855;BME280;38719;51.418;7.286;2023-04-23T00:55:22;99023.31;;;13.18;70.45
52855;BME280;38719;51.418;7.286;2023-04-23T00:57:50;99024.50;;;13.14;71.35
52855;BME280;38719;51.418;7.286;2023-04-23T01:00:18;99023.34;;;13.05;70.91
52855;BME280;38719;51.418;7.286;2023-04-23T01:02:46;99037.03;;;12.87;71.76
52855;BME280;38719;51.418;7.286;2023-04-23T01:05:16;99034.00;;;12.79;73.48
52855;BME280;38719;51.418;7.286;2023-04-23T01:07:44;99040.56;;;13.01;72.98
52855;BME280;38719;51.418;7.286;2023-04-23T01:10:13;99035.19;;;12.88;73.15
52855;BME280;38719;51.418;7.286;2023-04-23T01:12:42;99029.94;;;12.99;72.16
52855;BME280;38719;51.418;7.286;2023-04-23T01:15:09;99027.63;;;12.95;72.33
52855;BME280;38719;51.418;7.286;2023-04-23T01:17:37;99030.59;;;12.90;72.40
52855;BME280;38719;51.418;7.286;2023-04-23T01:20:05;99042.38;;;12.87;71.94
52855;BME280;38719;51.418;7.286;2023-04-23T01:22:36;99032.44;;;12.89;72.02
52855;BME280;38719;51.418;7.286;2023-04-23T01:25:05;99025.34;;;12.63;73.02
52855;BME280;38719;51.418;7.286;2023-04-23T01:27:33;99021.38;;;12.55;72.77
52855;BME280;38719;51.418;7.286;2023-04-23T01:30:02;99022.88;;;12.47;73.71
52855;BME280;38719;51.418;7.286;2023-04-23T01:32:30;99030.03;;;12.46;73.89
52855;BME280;38719;51.418;7.286;2023-04-23T01:34:58;99024.28;;;12.25;75.03
52855;BME280;38719;51.418;7.286;2023-04-23T01:37:27;99024.16;;;12.54;74.17
52855;BME280;38719;51.418;7.286;2023-04-23T01:39:57;99028.91;;;12.76;73.60
52855;BME280;38719;51.418;7.286;2023-04-23T01:42:24;99027.38;;;12.72;73.01
52855;BME280;38719;51.418;7.286;2023-04-23T01:44:52;99024.84;;;12.83;71.68
52855;BME280;38719;51.418;7.286;2023-04-23T01:47:20;99029.22;;;12.71;71.47
52855;BME280;38719;51.418;7.286;2023-04-23T01:49:48;99019.97;;;12.37;74.31
52855;BME280;38719;51.418;7.286;2023-04-23T01:52:15;99021.19;;;12.58;73.10
52855;BME280;38719;51.418;7.286;2023-04-23T01:54:43;99021.03;;;12.47;73.16
52855;BME280;38719;51.418;7.286;2023-04-23T01:57:12;99026.91;;;12.39;72.91
52855;BME280;38719;51.418;7.286;2023-04-23T01:59:41;99030.63;;;12.37;74.63
52855;BME280;38719;51.418;7.286;2023-04-23T02:02:08;99030.75;;;12.35;73.37
52855;BME280;38719;51.418;7.286;2023-04-23T02:04:40;99024.88;;;12.30;73.97
52855;BME280;38719;51.418;7.286;2023-04-23T02:07:09;99026.72;;;12.55;72.52
52855;BME280;38719;51.418;7.286;2023-04-23T02:09:37;99032.72;;;12.72;72.06
52855;BME280;38719;51.418;7.286;2023-04-23T02:12:05;99028.22;;;12.47;72.71
52855;BME280;38719;51.418;7.286;2023-04-23T02:14:34;99022.44;;;12.66;72.69
52855;BME280;38719;51.418;7.286;2023-04-23T02:17:01;99019.16;;;12.75;72.06
52855;BME280;38719;51.418;7.286;2023-04-23T02:19:29;99013.38;;;12.68;71.03
52855;BME280;38719;51.418;7.286;2023-04-23T02:21:59;99027.44;;;12.45;72.21
52855;BME280;38719;51.418;7.286;2023-04-23T02:24:27;99015.56;;;12.36;72.63
52855;BME280;38719;51.418;7.286;2023-04-23T02:26:54;99020.41;;;12.03;74.10
52855;BME280;38719;51.418;7.286;2023-04-23T02:29:23;99021.25;;;12.04;73.97
52855;BME280;38719;51.418;7.286;2023-04-23T02:31:52;99020.06;;;12.35;72.96
52855;BME280;38719;51.418;7.286;2023-04-23T02:34:19;99013.13;;;12.33;72.98
52855;BME280;38719;51.418;7.286;2023-04-23T02:36:47;99011.34;;;12.46;72.59
52855;BME280;38719;51.418;7.286;2023-04-23T02:39:14;99015.56;;;12.36;72.41
52855;BME280;38719;51.418;7.286;2023-04-23T02:41:42;99005.97;;;12.33;73.67
52855;BME280;38719;51.418;7.286;2023-04-23T02:44:09;99014.38;;;12.27;72.75
52855;BME280;38719;51.418;7.286;2023-04-23T02:46:37;99005.13;;;12.33;72.63
52855;BME280;38719;51.418;7.286;2023-04-23T02:49:06;99011.59;;;12.29;72.83
52855;BME280;38719;51.418;7.286;2023-04-23T02:51:33;99008.28;;;12.25;73.41
52855;BME280;38719;51.418;7.286;2023-04-23T02:54:01;99004.09;;;12.08;74.14
52855;BME280;38719;51.418;7.286;2023-04-23T02:56:29;99012.28;;;12.05;74.39
52855;BME280;38719;51.418;7.286;2023-04-23T02:58:56;99006.34;;;12.14;74.30
52855;BME280;38719;51.418;7.286;2023-04-23T03:01:24;99012.88;;;11.96;73.75
52855;BME280;38719;51.418;7.286;2023-04-23T03:03:52;99013.06;;;11.92;74.33
52855;BME280;38719;51.418;7.286;2023-04-23T03:06:21;99013.31;;;11.75;74.91
52855;BME280;38719;51.418;7.286;2023-04-23T03:08:49;99016.91;;;11.88;75.18
52855;BME280;38719;51.418;7.286;2023-04-23T03:11:16;99014.50;;;11.56;75.27
52855;BME280;38719;51.418;7.286;2023-04-23T03:13:44;99013.66;;;11.56;74.59
52855;BME280;38719;51.418;7.286;2023-04-23T03:16:11;99014.00;;;11.64;74.90
52855;BME280;38719;51.418;7.286;2023-04-23T03:18:39;99019.00;;;11.83;74.64
52855;BME280;38719;51.418;7.286;2023-04-23T03:21:07;99009.19;;;11.84;74.56
52855;BME280;38719;51.418;7.286;2023-04-23T03:23:36;99006.94;;;12.05;74.93
52855;BME280;38719;51.418;7.286;2023-04-23T03:26:03;99006.03;;;12.19;73.51
52855;BME280;38719;51.418;7.286;2023-04-23T03:28:32;99007.81;;;12.05;72.93
52855;BME280;38719;51.418;7.286;2023-04-23T03:30:59;98997.75;;;11.96;73.63
52855;BME280;38719;51.418;7.286;2023-04-23T03:33:27;99002.19;;;11.96;73.99
52855;BME280;38719;51.418;7.286;2023-04-23T03:35:54;98996.41;;;12.16;73.73
52855;BME280;38719;51.418;7.286;2023-04-23T03:38:22;98992.25;;;12.25;73.10
52855;BME280;38719;51.418;7.286;2023-04-23T03:40:50;98993.19;;;12.11;72.54
52855;BME280;38719;51.418;7.286;2023-04-23T03:43:18;98992.06;;;12.15;73.18
52855;BME280;38719;51.418;7.286;2023-04-23T03:45:45;98986.59;;;12.17;71.72
52855;BME280;38719;51.418;7.286;2023-04-23T03:48:13;98989.06;;;12.20;72.29
52855;BME280;38719;51.418;7.286;2023-04-23T03:50:41;98988.16;;;12.34;72.43
52855;BME280;38719;51.418;7.286;2023-04-23T03:53:08;98990.59;;;12.37;72.02
52855;BME280;38719;51.418;7.286;2023-04-23T03:55:36;98994.22;;;12.36;71.02
52855;BME280;38719;51.418;7.286;2023-04-23T03:58:05;98988.69;;;12.52;71.14
52855;BME280;38719;51.418;7.286;2023-04-23T04:00:35;98988.91;;;12.49;71.57
52855;BME280;38719;51.418;7.286;2023-04-23T04:03:02;98987.09;;;12.49;71.30
52855;BME280;38719;51.418;7.286;2023-04-23T04:05:30;98982.41;;;12.53;72.16
52855;BME280;38719;51.418;7.286;2023-04-23T04:07:57;98983.16;;;12.55;71.08
52855;BME280;38719;51.418;7.286;2023-04-23T04:10:25;98982.06;;;12.45;72.50
52855;BME280;38719;51.418;7.286;2023-04-23T04:12:52;98966.78;;;12.60;72.00
52855;BME280;38719;51.418;7.286;2023-04-23T04:15:21;98974.59;;;12.63;70.53
52855;BME280;38719;51.418;7.286;2023-04-23T04:17:49;98973.97;;;12.46;71.14
52855;BME280;38719;51.418;7.286;2023-04-23T04:20:17;98967.78;;;12.58;70.94
52855;BME280;38719;51.418;7.286;2023-04-23T04:22:44;98960.81;;;12.56;71.45
52855;BME280;38719;51.418;7.286;2023-04-23T04:25:12;98971.28;;;12.72;71.59
52855;BME280;38719;51.418;7.286;2023-04-23T04:27:40;98967.13;;;12.68;70.34
52855;BME280;38719;51.418;7.286;2023-04-23T04:30:08;98959.84;;;12.57;71.93
52855;BME280;38719;51.418;7.286;2023-04-23T04:32:37;98956.84;;;12.74;70.49
52855;BME280;38719;51.418;7.286;2023-04-23T04:35:06;98951.72;;;12.84;70.62
52855;BME280;38719;51.418;7.286;2023-04-23T04:37:34;98956.41;;;12.81;69.59
52855;BME280;38719;51.418;7.286;2023-04-23T04:40:02;98953.88;;;12.79;69.89
52855;BME280;38719;51.418;7.286;2023-04-23T04:42:32;98958.69;;;12.74;69.14
52855;BME280;38719;51.418;7.286;2023-04-23T04:45:00;98964.78;;;12.76;69.79
52855;BME280;38719;51.418;7.286;2023-04-23T04:47:27;98964.34;;;12.69;69.43
52855;BME280;38719;51.418;7.286;2023-04-23T04:49:56;98961.34;;;12.74;68.11
52855;BME280;38719;51.418;7.286;2023-04-23T04:52:25;98963.25;;;12.72;68.36
52855;BME280;38719;51.418;7.286;2023-04-23T04:54:52;98962.63;;;12.68;68.48
52855;BME280;38719;51.418;7.286;2023-04-23T04:57:20;98969.47;;;12.72;68.73
52855;BME280;38719;51.418;7.286;2023-04-23T04:59:48;98963.06;;;12.75;68.18
52855;BME280;38719;51.418;7.286;2023-04-23T05:02:16;98963.91;;;12.63;68.62
52855;BME280;38719;51.418;7.286;2023-04-23T05:04:43;98955.38;;;12.57;68.32
52855;BME280;38719;51.418;7.286;2023-04-23T05:07:12;98959.00;;;12.56;68.44
52855;BME280;38719;51.418;7.286;2023-04-23T05:09:40;98961.03;;;12.40;69.03
52855;BME280;38719;51.418;7.286;2023-04-23T05:12:10;98964.78;;;12.50;68.94
52855;BME280;38719;51.418;7.286;2023-04-23T05:14:37;98962.81;;;12.39;69.81
52855;BME280;38719;51.418;7.286;2023-04-23T05:17:05;98970.59;;;12.30;70.04
52855;BME280;38719;51.418;7.286;2023-04-23T05:19:33;98973.19;;;12.44;68.66
52855;BME280;38719;51.418;7.286;2023-04-23T05:22:00;98974.81;;;12.47;69.25
52855;BME280;38719;51.418;7.286;2023-04-23T05:24:30;98981.63;;;12.51;69.75
52855;BME280;38719;51.418;7.286;2023-04-23T05:26:57;98987.41;;;12.45;69.67
52855;BME280;38719;51.418;7.286;2023-04-23T05:29:26;98982.81;;;12.34;71.26
52855;BME280;38719;51.418;7.286;2023-04-23T05:31:53;98982.38;;;12.40;71.22
52855;BME280;38719;51.418;7.286;2023-04-23T05:34:21;98982.28;;;12.54;71.89
52855;BME280;38719;51.418;7.286;2023-04-23T05:36:48;98980.34;;;12.44;71.27
52855;BME280;38719;51.418;7.286;2023-04-23T05:39:16;98978.22;;;12.62;71.28
52855;BME280;38719;51.418;7.286;2023-04-23T05:41:45;98978.34;;;12.73;70.30
52855;BME280;38719;51.418;7.286;2023-04-23T05:44:12;98984.53;;;12.86;70.76
52855;BME280;38719;51.418;7.286;2023-04-23T05:46:40;98977.47;;;12.85;70.24
52855;BME280;38719;51.418;7.286;2023-04-23T05:49:07;98978.00;;;13.03;70.27
52855;BME280;38719;51.418;7.286;2023-04-23T05:51:34;98976.19;;;13.04;69.56
52855;BME280;38719;51.418;7.286;2023-04-23T05:54:02;98976.63;;;13.11;70.32
52855;BME280;38719;51.418;7.286;2023-04-23T05:56:29;98976.25;;;13.28;69.35
52855;BME280;38719;51.418;7.286;2023-04-23T05:58:58;98974.94;;;13.34;69.28
52855;BME280;38719;51.418;7.286;2023-04-23T06:01:26;98972.84;;;13.26;69.75
52855;BME280;38719;51.418;7.286;2023-04-23T06:03:54;98976.91;;;13.32;69.73
52855;BME280;38719;51.418;7.286;2023-04-23T06:06:22;98974.22;;;13.45;69.12
52855;BME280;38719;51.418;7.286;2023-04-23T06:08:49;98965.47;;;13.43;69.79
52855;BME280;38719;51.418;7.286;2023-04-23T06:11:17;98966.63;;;13.51;68.87
52855;BME280;38719;51.418;7.286;2023-04-23T06:13:44;98973.81;;;13.75;68.63
52855;BME280;38719;51.418;7.286;2023-04-23T06:16:13;98971.00;;;13.77;68.48
52855;BME280;38719;51.418;7.286;2023-04-23T06:18:41;98973.34;;;13.81;68.50
52855;BME280;38719;51.418;7.286;2023-04-23T06:21:08;98967.78;;;13.96;68.55
52855;BME280;38719;51.418;7.286;2023-04-23T06:23:35;98973.00;;;13.86;68.67
52855;BME280;38719;51.418;7.286;2023-04-23T06:26:03;98968.63;;;13.85;68.76
52855;BME280;38719;51.418;7.286;2023-04-23T06:28:31;98968.13;;;13.80;68.36
52855;BME280;38719;51.418;7.286;2023-04-23T06:30:58;98966.75;;;13.74;69.09
52855;BME280;38719;51.418;7.286;2023-04-23T06:33:29;98971.84;;;13.77;69.10
52855;BME280;38719;51.418;7.286;2023-04-23T06:35:56;98962.75;;;13.80;68.86
52855;BME280;38719;51.418;7.286;2023-04-23T06:38:24;98959.97;;;13.81;68.67
52855;BME280;38719;51.418;7.286;2023-04-23T06:40:51;98962.00;;;13.78;68.89
52855;BME280;38719;51.418;7.286;2023-04-23T06:43:19;98966.50;;;13.77;69.60
52855;BME280;38719;51.418;7.286;2023-04-23T06:45:47;98967.03;;;13.82;69.16
52855;BME280;38719;51.418;7.286;2023-04-23T06:48:15;98967.50;;;13.76;69.73
52855;BME280;38719;51.418;7.286;2023-04-23T06:50:45;98954.13;;;14.12;68.54
52855;BME280;38719;51.418;7.286;2023-04-23T06:53:12;98960.47;;;14.11;69.08
52855;BME280;38719;51.418;7.286;2023-04-23T06:55:40;98960.84;;;14.17;69.05
52855;BME280;38719;51.418;7.286;2023-04-23T06:58:08;98952.03;;;14.40;68.44
52855;BME280;38719;51.418;7.286;2023-04-23T07:00:37;98947.47;;;14.17;68.50
52855;BME280;38719;51.418;7.286;2023-04-23T07:03:05;98953.13;;;14.37;68.11
52855;BME280;38719;51.418;7.286;2023-04-23T07:05:32;98956.75;;;14.36;67.87
52855;BME280;38719;51.418;7.286;2023-04-23T07:08:01;98956.72;;;14.60;68.29
52855;BME280;38719;51.418;7.286;2023-04-23T07:10:29;98953.25;;;14.47;68.01
52855;BME280;38719;51.418;7.286;2023-04-23T07:12:56;98959.09;;;14.41;67.77
52855;BME280;38719;51.418;7.286;2023-04-23T07:15:24;98955.63;;;14.16;68.88
52855;BME280;38719;51.418;7.286;2023-04-23T07:17:51;98963.34;;;14.32;68.40
52855;BME280;38719;51.418;7.286;2023-04-23T07:20:19;98956.50;;;14.39;68.64
52855;BME280;38719;51.418;7.286;2023-04-23T07:22:46;98957.91;;;14.56;68.09
52855;BME280;38719;51.418;7.286;2023-04-23T07:25:15;98960.44;;;14.46;68.27
52855;BME280;38719;51.418;7.286;2023-04-23T07:27:42;98949.38;;;14.62;67.98
52855;BME280;38719;51.418;7.286;2023-04-23T07:30:11;98946.34;;;14.56;67.83
52855;BME280;38719;51.418;7.286;2023-04-23T07:32:38;98947.28;;;14.43;67.62
52855;BME280;38719;51.418;7.286;2023-04-23T07:35:07;98953.69;;;14.65;67.69
52855;BME280;38719;51.418;7.286;2023-04-23T07:37:35;98944.31;;;14.71;67.36
52855;BME280;38719;51.418;7.286;2023-04-23T07:40:04;98939.09;;;14.69;67.27
52855;BME280;38719;51.418;7.286;2023-04-23T07:42:35;98941.28;;;14.75;67.29
52855;BME280;38719;51.418;7.286;2023-04-23T07:45:04;98925.22;;;14.87;67.11
52855;BME280;38719;51.418;7.286;2023-04-23T07:47:31;98940.06;;;14.68;67.40
52855;BME280;38719;51.418;7.286;2023-04-23T07:49:59;98935.13;;;14.50;67.48
52855;BME280;38719;51.418;7.286;2023-04-23T07:52:27;98942.38;;;14.73;67.38
52855;BME280;38719;51.418;7.286;2023-04-23T07:54:54;98938.34;;;14.78;67.06
52855;BME280;38719;51.418;7.286;2023-04-23T07:57:22;98928.13;;;14.72;66.69
52855;BME280;38719;51.418;7.286;2023-04-23T07:59:51;98926.19;;;14.74;66.67
52855;BME280;38719;51.418;7.286;2023-04-23T08:02:18;98932.38;;;14.75;66.19
52855;BME280;38719;51.418;7.286;2023-04-23T08:04:49;98928.84;;;14.86;66.36
52855;BME280;38719;51.418;7.286;2023-04-23T08:07:16;98921.44;;;14.89;65.61
52855;BME280;38719;51.418;7.286;2023-04-23T08:09:44;98930.44;;;14.88;66.13
52855;BME280;38719;51.418;7.286;2023-04-23T08:12:12;98913.75;;;14.96;66.17
52855;BME280;38719;51.418;7.286;2023-04-23T08:14:42;98913.50;;;15.10;66.22
52855;BME280;38719;51.418;7.286;2023-04-23T08:17:11;98914.22;;;15.12;65.65
52855;BME280;38719;51.418;7.286;2023-04-23T08:19:38;98906.78;;;15.27;66.30
52855;BME280;38719;51.418;7.286;2023-04-23T08:22:06;98904.44;;;15.34;64.69
52855;BME280;38719;51.418;7.286;2023-04-23T08:24:34;98904.66;;;15.42;65.15
52855;BME280;38719;51.418;7.286;2023-04-23T08:27:02;98908.78;;;15.46;63.97
52855;BME280;38719;51.418;7.286;2023-04-23T08:29:30;98898.94;;;15.47;63.91
52855;BME280;38719;51.418;7.286;2023-04-23T08:31:57;98906.56;;;15.52;63.90
52855;BME280;38719;51.418;7.286;2023-04-23T08:34:26;98904.06;;;15.39;63.00
52855;BME280;38719;51.418;7.286;2023-04-23T08:36:53;98890.25;;;15.55;62.77
52855;BME280;38719;51.418;7.286;2023-04-23T08:39:21;98900.25;;;15.53;63.16
52855;BME280;38719;51.418;7.286;2023-04-23T08:41:54;98901.22;;;15.52;62.64
52855;BME280;38719;51.418;7.286;2023-04-23T08:44:24;98897.56;;;15.53;62.11
52855;BME280;38719;51.418;7.286;2023-04-23T08:46:53;98902.00;;;15.75;62.67
52855;BME280;38719;51.418;7.286;2023-04-23T08:49:21;98894.19;;;15.83;62.96
52855;BME280;38719;51.418;7.286;2023-04-23T08:51:52;98893.56;;;16.12;63.01
52855;BME280;38719;51.418;7.286;2023-04-23T08:54:23;98902.19;;;16.37;61.25
52855;BME280;38719;51.418;7.286;2023-04-23T08:56:53;98907.56;;;16.37;60.66
52855;BME280;38719;51.418;7.286;2023-04-23T08:59:23;98899.13;;;16.41;61.09
52855;BME280;38719;51.418;7.286;2023-04-23T09:01:52;98892.25;;;16.49;60.47
52855;BME280;38719;51.418;7.286;2023-04-23T09:04:21;98895.28;;;16.65;60.55
52855;BME280;38719;51.418;7.286;2023-04-23T09:06:51;98901.34;;;16.88;60.14
52855;BME280;38719;51.418;7.286;2023-04-23T09:09:19;98900.47;;;16.88;59.87
52855;BME280;38719;51.418;7.286;2023-04-23T09:11:49;98891.66;;;16.97;59.05
52855;BME280;38719;51.418;7.286;2023-04-23T09:14:21;98896.72;;;17.00;58.63
52855;BME280;38719;51.418;7.286;2023-04-23T09:16:51;98900.38;;;16.89;56.71
52855;BME280;38719;51.418;7.286;2023-04-23T09:19:19;98896.84;;;16.68;57.61
52855;BME280;38719;51.418;7.286;2023-04-23T09:21:46;98890.19;;;16.62;58.39
52855;BME280;38719;51.418;7.286;2023-04-23T09:24:15;98882.75;;;16.75;57.85
52855;BME280;38719;51.418;7.286;2023-04-23T09:26:43;98878.97;;;16.88;58.01
52855;BME280;38719;51.418;7.286;2023-04-23T09:29:13;98881.22;;;16.83;58.12
52855;BME280;38719;51.418;7.286;2023-04-23T09:31:44;98880.59;;;17.00;58.05
52855;BME280;38719;51.418;7.286;2023-04-23T09:34:14;98879.56;;;17.42;57.80
52855;BME280;38719;51.418;7.286;2023-04-23T09:36:43;98874.63;;;17.57;56.88
52855;BME280;38719;51.418;7.286;2023-04-23T09:39:11;98867.69;;;17.45;55.69
52855;BME280;38719;51.418;7.286;2023-04-23T09:41:41;98873.06;;;17.45;55.44
52855;BME280;38719;51.418;7.286;2023-04-23T09:44:08;98875.72;;;17.35;54.61
52855;BME280;38719;51.418;7.286;2023-04-23T09:46:39;98877.69;;;17.13;55.82
52855;BME280;38719;51.418;7.286;2023-04-23T09:49:08;98878.22;;;17.07;56.02
52855;BME280;38719;51.418;7.286;2023-04-23T09:51:36;98878.22;;;17.07;55.12
52855;BME280;38719;51.418;7.286;2023-04-23T09:54:10;98875.44;;;17.28;54.97
52855;BME280;38719;51.418;7.286;2023-04-23T09:56:38;98880.31;;;17.54;55.52
52855;BME280;38719;51.418;7.286;2023-04-23T09:59:20;98874.06;;;17.73;54.42
52855;BME280;38719;51.418;7.286;2023-04-23T10:02:02;98866.41;;;17.88;54.38
52855;BME280;38719;51.418;7.286;2023-04-23T10:04:30;98862.03;;;18.07;54.21
52855;BME280;38719;51.418;7.286;2023-04-23T10:07:00;98860.81;;;18.48;53.48
52855;BME280;38719;51.418;7.286;2023-04-23T10:09:33;98858.56;;;18.91;52.47
52855;BME280;38719;51.418;7.286;2023-04-23T10:12:01;98848.63;;;18.82;51.30
52855;BME280;38719;51.418;7.286;2023-04-23T10:14:31;98857.91;;;18.69;51.23
52855;BME280;38719;51.418;7.286;2023-04-23T10:17:01;98851.56;;;18.61;50.71
52855;BME280;38719;51.418;7.286;2023-04-23T10:19:31;98863.28;;;18.32;51.08
52855;BME280;38719;51.418;7.286;2023-04-23T10:22:00;98868.00;;;18.10;50.72
52855;BME280;38719;51.418;7.286;2023-04-23T10:24:45;98866.44;;;17.98;51.27
52855;BME280;38719;51.418;7.286;2023-04-23T10:27:17;98867.00;;;17.92;52.48
52855;BME280;38719;51.418;7.286;2023-04-23T10:29:49;98858.38;;;17.98;52.42
52855;BME280;38719;51.418;7.286;2023-04-23T10:32:19;98859.88;;;18.30;52.39
52855;BME280;38719;51.418;7.286;2023-04-23T10:34:46;98853.31;;;18.52;51.65
52855;BME280;38719;51.418;7.286;2023-04-23T10:37:14;98842.84;;;18.77;51.39
52855;BME280;38719;51.418;7.286;2023-04-23T10:39:49;98835.25;;;19.00;51.12
52855;BME280;38719;51.418;7.286;2023-04-23T10:42:17;98823.09;;;19.14;50.42
52855;BME280;38719;51.418;7.286;2023-04-23T10:44:44;98824.41;;;19.10;49.56
52855;BME280;38719;51.418;7.286;2023-04-23T10:47:29;98828.66;;;19.48;50.27
52855;BME280;38719;51.418;7.286;2023-04-23T10:49:57;98822.81;;;19.53;50.86
52855;BME280;38719;51.418;7.286;2023-04-23T10:52:44;98816.09;;;19.57;48.24
52855;BME280;38719;51.418;7.286;2023-04-23T10:55:16;98818.25;;;19.54;48.18
52855;BME280;38719;51.418;7.286;2023-04-23T10:57:57;98812.53;;;19.39;49.20
52855;BME280;38719;51.418;7.286;2023-04-23T11:00:29;98812.47;;;19.67;47.46
52855;BME280;38719;51.418;7.286;2023-04-23T11:03:29;98803.34;;;19.31;47.01
52855;BME280;38719;51.418;7.286;2023-04-23T11:06:00;98803.38;;;19.13;47.56
52855;BME280;38719;51.418;7.286;2023-04-23T11:08:30;98798.50;;;19.35;47.23
52855;BME280;38719;51.418;7.286;2023-04-23T11:11:00;98794.81;;;19.54;46.52
52855;BME280;38719;51.418;7.286;2023-04-23T11:13:28;98798.19;;;19.56;46.90
52855;BME280;38719;51.418;7.286;2023-04-23T11:16:12;98796.19;;;19.58;47.08
52855;BME280;38719;51.418;7.286;2023-04-23T11:19:01;98794.81;;;19.54;47.45
52855;BME280;38719;51.418;7.286;2023-04-23T11:21:54;98792.56;;;19.49;47.22
52855;BME280;38719;51.418;7.286;2023-04-23T11:24:22;98780.16;;;19.21;47.77
52855;BME280;38719;51.418;7.286;2023-04-23T11:26:51;98789.19;;;19.29;48.11
52855;BME280;38719;51.418;7.286;2023-04-23T11:29:20;98779.47;;;19.19;47.28
52855;BME280;38719;51.418;7.286;2023-04-23T11:31:49;98770.25;;;18.93;47.68
52855;BME280;38719;51.418;7.286;2023-04-23T11:34:30;98775.75;;;19.01;47.66
52855;BME280;38719;51.418;7.286;2023-04-23T11:36:58;98772.53;;;19.16;47.70
52855;BME280;38719;51.418;7.286;2023-04-23T11:39:27;98771.91;;;19.40;47.78
52855;BME280;38719;51.418;7.286;2023-04-23T11:41:54;98764.41;;;19.52;47.27
52855;BME280;38719;51.418;7.286;2023-04-23T11:44:22;98758.94;;;19.44;47.60
52855;BME280;38719;51.418;7.286;2023-04-23T11:46:49;98752.88;;;19.42;47.12
52855;BME280;38719;51.418;7.286;2023-04-23T11:49:19;98744.00;;;19.76;46.91
52855;BME280;38719;51.418;7.286;2023-04-23T11:51:48;98733.69;;;19.71;46.26
52855;BME280;38719;51.418;7.286;2023-04-23T11:54:18;98734.38;;;19.91;44.51
52855;BME280;38719;51.418;7.286;2023-04-23T11:56:45;98725.41;;;20.17;44.34
52855;BME280;38719;51.418;7.286;2023-04-23T11:59:13;98731.31;;;19.86;43.47
52855;BME280;38719;51.418;7.286;2023-04-23T12:01:41;98735.72;;;19.69;43.21
52855;BME280;38719;51.418;7.286;2023-04-23T12:04:13;98735.72;;;19.51;43.36
52855;BME280;38719;51.418;7.286;2023-04-23T12:06:43;98742.38;;;19.39;42.71
52855;BME280;38719;51.418;7.286;2023-04-23T12:09:14;98729.66;;;19.13;42.21
52855;BME280;38719;51.418;7.286;2023-04-23T12:11:43;98720.56;;;19.32;41.92
52855;BME280;38719;51.418;7.286;2023-04-23T12:14:11;98726.34;;;19.37;41.87
52855;BME280;38719;51.418;7.286;2023-04-23T12:16:41;98729.41;;;19.60;42.18
52855;BME280;38719;51.418;7.286;2023-04-23T12:19:11;98721.22;;;19.52;41.42
52855;BME280;38719;51.418;7.286;2023-04-23T12:21:50;98717.53;;;19.97;41.83
52855;BME280;38719;51.418;7.286;2023-04-23T12:24:21;98711.28;;;20.32;42.41
52855;BME280;38719;51.418;7.286;2023-04-23T12:26:50;98711.81;;;20.86;40.30
52855;BME280;38719;51.418;7.286;2023-04-23T12:29:20;98707.63;;;21.08;40.15
52855;BME280;38719;51.418;7.286;2023-04-23T12:31:49;98699.19;;;21.12;38.74
52855;BME280;38719;51.418;7.286;2023-04-23T12:34:18;98700.69;;;20.98;39.43
52855;BME280;38719;51.418;7.286;2023-04-23T12:36:48;98701.69;;;21.05;39.58
52855;BME280;38719;51.418;7.286;2023-04-23T12:39:28;98696.63;;;20.93;38.75
52855;BME280;38719;51.418;7.286;2023-04-23T12:41:57;98679.88;;;20.98;39.46
52855;BME280;38719;51.418;7.286;2023-04-23T12:44:28;98682.44;;;21.08;39.52
52855;BME280;38719;51.418;7.286;2023-04-23T12:46:57;98682.78;;;21.21;39.73
52855;BME280;38719;51.418;7.286;2023-04-23T12:49:25;98679.25;;;21.13;38.27
52855;BME280;38719;51.418;7.286;2023-04-23T12:51:54;98676.19;;;20.99;37.97
52855;BME280;38719;51.418;7.286;2023-04-23T12:54:24;98673.13;;;20.94;37.72
52855;BME280;38719;51.418;7.286;2023-04-23T12:56:53;98667.53;;;21.12;37.60
52855;BME280;38719;51.418;7.286;2023-04-23T12:59:20;98664.03;;;21.20;37.86
52855;BME280;38719;51.418;7.286;2023-04-23T13:01:49;98666.03;;;21.09;37.11
52855;BME280;38719;51.418;7.286;2023-04-23T13:04:17;98663.81;;;21.38;36.45
52855;BME280;38719;51.418;7.286;2023-04-23T13:06:44;98651.81;;;21.49;36.47
52855;BME280;38719;51.418;7.286;2023-04-23T13:09:12;98636.56;;;21.81;36.85